Time;durP1;ratioP1;P1;durP2;ratioP2;P2;SDS_P1;SDS_P2;PMS_P1;PMS_P2;Temp;Humidity;BMP_temperature;BMP_pressure;BME280_temperature;BME280_humidity;BME280_pressure;Samples;Min_cycle;Max_cycle;Signal;HPM_P1;HPM_P2
2023/04/29 00:00:35;;;;;;;39.20;18.05;;;;;;;9.05;93.59;101342.25;5014639;28;20034;-76
2023/04/29 00:03:00;;;;;;;32.95;16.27;;;;;;;9.04;93.66;101348.31;5014790;28;20029;-75
2023/04/29 00:05:26;;;;;;;30.98;15.50;;;;;;;9.04;93.46;101348.31;5012640;28;20030;-76
2023/04/29 00:07:52;;;;;;;31.75;15.73;;;;;;;9.01;94.16;101353.53;5013985;28;20030;-76
2023/04/29 00:10:17;;;;;;;30.27;15.85;;;;;;;9.03;94.31;101352.63;5014906;28;20103;-76
2023/04/29 00:12:42;;;;;;;30.67;15.65;;;;;;;9.04;94.15;101354.34;5014901;28;20092;-76
2023/04/29 00:15:08;;;;;;;33.53;16.17;;;;;;;9.03;94.15;101369.97;5012926;28;20038;-76
2023/04/29 00:17:34;;;;;;;32.08;16.67;;;;;;;9.02;93.59;101363.03;5014557;28;20026;-76
2023/04/29 00:19:59;;;;;;;34.92;18.67;;;;;;;8.96;93.72;101366.56;5014559;28;20684;-76
2023/04/29 00:22:24;;;;;;;36.35;18.02;;;;;;;8.90;94.38;101370.06;5014578;28;20446;-76
2023/04/29 00:24:50;;;;;;;37.80;18.80;;;;;;;8.89;94.15;101365.75;5013889;28;20029;-76
2023/04/29 00:27:16;;;;;;;34.00;18.00;;;;;;;8.83;94.26;101372.72;5013654;28;20026;-76
2023/04/29 00:29:42;;;;;;;31.42;17.15;;;;;;;8.79;94.53;101370.19;5014283;28;20089;-76
2023/04/29 00:32:07;;;;;;;27.83;16.00;;;;;;;8.75;94.25;101373.69;5016170;28;20066;-76
2023/04/29 00:34:32;;;;;;;28.67;15.57;;;;;;;8.73;94.27;101375.44;5012185;28;20431;-76
2023/04/29 00:36:58;;;;;;;25.70;14.32;;;;;;;8.74;94.13;101378.88;5013141;28;20504;-76
2023/04/29 00:39:23;;;;;;;26.45;14.38;;;;;;;8.73;93.70;101380.63;5012922;28;20462;-76
2023/04/29 00:41:49;;;;;;;24.27;14.77;;;;;;;8.73;93.33;101380.63;5013208;28;20036;-76
2023/04/29 00:44:14;;;;;;;22.88;13.60;;;;;;;8.71;93.43;101384.13;5013352;28;20095;-76
2023/04/29 00:46:40;;;;;;;24.85;14.48;;;;;;;8.72;93.66;101385.81;5012707;28;20037;-76
2023/04/29 00:49:07;;;;;;;25.95;15.65;;;;;;;8.69;93.33;101383.25;5010914;28;20018;-76
2023/04/29 00:51:33;;;;;;;25.77;15.00;;;;;;;8.67;94.02;101380.66;5013567;28;20021;-76
2023/04/29 00:53:58;;;;;;;24.48;14.30;;;;;;;8.71;93.67;101386.72;5012622;28;20026;-76
2023/04/29 00:56:24;;;;;;;27.00;15.85;;;;;;;8.67;93.61;101385.00;5011104;28;20037;-76
2023/04/29 00:58:50;;;;;;;24.80;14.55;;;;;;;8.66;93.90;101384.13;5012065;28;20030;-76
2023/04/29 01:01:16;;;;;;;24.17;15.27;;;;;;;8.67;93.93;101391.03;5011903;28;20014;-76
2023/04/29 01:03:42;;;;;;;25.35;14.55;;;;;;;8.69;93.47;101391.03;5013980;28;20524;-76
2023/04/29 01:06:34;;;;;;;25.60;15.27;;;;;;;8.65;93.76;101398.84;5011514;28;20061;-75
2023/04/29 01:09:21;;;;;;;23.33;14.73;;;;;;;8.65;93.62;101393.66;5012260;28;20431;-76
2023/04/29 01:12:10;;;;;;;25.88;15.90;;;;;;;8.68;93.75;101397.09;5012608;28;20023;-76
2023/04/29 01:14:38;;;;;;;25.42;15.70;;;;;;;8.65;93.83;101398.84;5011236;28;20467;-76
2023/04/29 01:17:13;;;;;;;27.42;15.93;;;;;;;8.65;93.79;101409.22;5011464;28;20029;-76
2023/04/29 01:19:49;;;;;;;27.58;15.38;;;;;;;8.67;93.67;101416.97;5012080;28;20030;-76
2023/04/29 01:22:16;;;;;;;30.40;18.02;;;;;;;8.68;93.23;101413.50;5011374;28;20104;-76
2023/04/29 01:24:42;;;;;;;31.33;18.77;;;;;;;8.63;93.47;101416.16;5011341;28;20021;-76
2023/04/29 01:27:28;;;;;;;34.83;18.65;;;;;;;8.61;93.46;101417.91;5013526;28;20385;-76
2023/04/29 01:30:18;;;;;;;33.47;18.90;;;;;;;8.59;93.54;101414.44;5010315;28;20441;-76
2023/04/29 01:32:58;;;;;;;31.65;18.60;;;;;;;8.58;93.78;101414.47;5011505;28;20052;-76
2023/04/29 01:35:43;;;;;;;36.83;18.20;;;;;;;8.56;94.16;101409.28;5012827;28;20393;-76
2023/04/29 01:38:29;;;;;;;32.55;18.23;;;;;;;8.56;94.03;101418.81;5011008;28;20029;-76
2023/04/29 01:41:16;;;;;;;34.90;18.88;;;;;;;8.55;94.33;101417.94;5011231;28;20473;-77
2023/04/29 01:43:45;;;;;;;27.63;15.77;;;;;;;8.56;94.27;101419.66;5009314;28;20079;-76
2023/04/29 01:46:16;;;;;;;31.63;17.95;;;;;;;8.56;94.06;101424.00;5012124;28;20022;-76
2023/04/29 01:48:41;;;;;;;32.08;17.33;;;;;;;8.55;94.40;101430.06;5012105;28;20030;-76
2023/04/29 01:51:07;;;;;;;30.33;16.45;;;;;;;8.52;94.64;101425.75;5009707;28;20014;-76
2023/04/29 01:53:32;;;;;;;31.45;16.30;;;;;;;8.50;94.55;101420.56;5010065;28;20533;-76
2023/04/29 01:55:57;;;;;;;29.52;15.68;;;;;;;8.51;94.98;101429.22;5012478;28;20100;-76
2023/04/29 01:58:23;;;;;;;30.63;15.52;;;;;;;8.54;94.71;101425.75;5010882;28;20470;-76
2023/04/29 02:00:48;;;;;;;28.88;15.38;;;;;;;8.54;95.04;101426.59;5010996;28;20103;-76
2023/04/29 02:03:13;;;;;;;27.67;15.45;;;;;;;8.54;95.37;101423.16;5012229;28;20100;-76
2023/04/29 02:05:38;;;;;;;27.90;13.85;;;;;;;8.53;95.36;101427.50;5012180;28;20358;-76
2023/04/29 02:08:06;;;;;;;28.40;14.55;;;;;;;8.50;95.43;101428.34;5011110;28;20042;-76
2023/04/29 02:10:31;;;;;;;28.02;14.82;;;;;;;8.49;96.03;101433.56;5010600;28;20037;-76
2023/04/29 02:12:56;;;;;;;29.40;15.20;;;;;;;8.49;96.14;101428.38;5012509;28;20045;-76
2023/04/29 02:15:25;;;;;;;26.98;15.40;;;;;;;8.51;95.97;101437.00;5012579;28;20385;-76
2023/04/29 02:17:50;;;;;;;28.67;15.48;;;;;;;8.49;96.42;101438.75;5012310;28;20026;-76
2023/04/29 02:20:15;;;;;;;29.27;15.38;;;;;;;8.49;96.79;101438.75;5010184;28;20029;-76
2023/04/29 02:22:41;;;;;;;27.10;14.45;;;;;;;8.50;96.57;101443.06;5010130;28;20022;-76
2023/04/29 02:25:07;;;;;;;27.80;15.07;;;;;;;8.49;96.71;101449.97;5012363;28;20457;-76
2023/04/29 02:27:32;;;;;;;25.17;13.10;;;;;;;8.49;96.88;101447.38;5012366;28;20031;-76
2023/04/29 02:29:57;;;;;;;26.38;14.10;;;;;;;8.50;96.62;101456.03;5010052;28;20494;-77
2023/04/29 02:32:23;;;;;;;28.38;14.55;;;;;;;8.49;97.02;101446.53;5010815;28;20062;-76
2023/04/29 02:34:48;;;;;;;26.77;14.50;;;;;;;8.49;96.82;101455.16;5011599;28;20033;-76
2023/04/29 02:37:14;;;;;;;28.30;15.07;;;;;;;8.48;96.77;101453.44;5011876;28;20165;-76
2023/04/29 02:39:40;;;;;;;25.73;14.30;;;;;;;8.48;96.99;101462.97;5010728;28;20373;-76
2023/04/29 02:42:05;;;;;;;30.33;15.27;;;;;;;8.48;97.19;101469.00;5011974;28;20045;-76
2023/04/29 02:44:30;;;;;;;27.00;14.57;;;;;;;8.48;97.16;101468.16;5010606;28;20029;-76
2023/04/29 02:46:56;;;;;;;29.45;14.80;;;;;;;8.48;97.44;101475.91;5011567;28;20621;-76
2023/04/29 02:49:22;;;;;;;30.35;15.10;;;;;;;8.47;97.82;101476.75;5008146;28;20026;-76
2023/04/29 02:51:48;;;;;;;31.35;15.65;;;;;;;8.48;97.95;101479.34;5011350;28;20038;-76
2023/04/29 02:54:17;;;;;;;27.85;14.52;;;;;;;8.50;97.34;101484.56;5010517;28;20030;-76
2023/04/29 02:56:42;;;;;;;32.22;15.98;;;;;;;8.48;97.46;101481.97;5011181;28;20021;-76
2023/04/29 02:59:08;;;;;;;30.15;15.52;;;;;;;8.48;97.46;101488.88;5010396;28;20025;-76
2023/04/29 03:01:33;;;;;;;32.38;15.43;;;;;;;8.47;97.89;101493.16;5011345;28;20045;-76
2023/04/29 03:03:59;;;;;;;30.27;16.13;;;;;;;8.49;97.92;101495.81;5012468;28;20056;-76
2023/04/29 03:06:24;;;;;;;26.50;14.90;;;;;;;8.49;97.15;101495.81;5012527;28;20537;-76
2023/04/29 03:08:50;;;;;;;31.52;16.00;;;;;;;8.45;97.38;101499.25;5009629;28;20040;-76
2023/04/29 03:11:15;;;;;;;29.85;15.65;;;;;;;8.44;97.56;101497.53;5011119;28;20493;-76
2023/04/29 03:13:40;;;;;;;26.85;13.77;;;;;;;8.43;97.64;101493.19;5010559;28;20104;-76
2023/04/29 03:16:06;;;;;;;32.10;16.13;;;;;;;8.44;97.55;101497.53;5009627;28;20029;-76
2023/04/29 03:18:31;;;;;;;29.40;15.45;;;;;;;8.42;97.68;101502.72;5009438;28;20038;-76
2023/04/29 03:20:57;;;;;;;28.95;14.77;;;;;;;8.41;97.42;101507.91;5015291;28;20485;-76
2023/04/29 03:23:22;;;;;;;28.40;14.20;;;;;;;8.40;97.40;101506.19;5015987;28;20038;-76
2023/04/29 03:25:48;;;;;;;27.05;13.85;;;;;;;8.38;97.52;101501.00;5016144;28;20461;-76
2023/04/29 03:28:14;;;;;;;25.15;13.52;;;;;;;8.38;97.74;101513.97;5012470;28;20053;-76
2023/04/29 03:30:39;;;;;;;28.15;14.30;;;;;;;8.39;97.69;101514.81;5015365;28;20057;-76
2023/04/29 03:33:04;;;;;;;29.33;14.95;;;;;;;8.37;97.53;101514.00;5014305;28;20037;-76
2023/04/29 03:35:29;;;;;;;28.08;13.73;;;;;;;8.36;97.01;101505.34;5013636;28;20034;-76
2023/04/29 03:37:55;;;;;;;29.48;15.13;;;;;;;8.33;97.57;101511.41;5013678;28;20033;-76
2023/04/29 03:40:20;;;;;;;24.05;13.15;;;;;;;8.32;97.59;101512.28;5016235;28;20021;-76
2023/04/29 03:42:45;;;;;;;24.15;13.43;;;;;;;8.32;98.02;101516.59;5014029;28;20021;-76
2023/04/29 03:45:14;;;;;;;26.17;14.10;;;;;;;8.33;98.21;101520.91;5016029;28;20026;-76
2023/04/29 03:47:39;;;;;;;26.63;13.65;;;;;;;8.33;98.31;101516.59;5014698;28;20032;-76
2023/04/29 03:50:07;;;;;;;26.45;14.20;;;;;;;8.32;98.33;101517.47;5007793;28;20044;-76
2023/04/29 03:52:35;;;;;;;27.52;15.48;;;;;;;8.31;98.42;101523.53;5013006;28;20108;-76
2023/04/29 03:55:00;;;;;;;28.85;15.00;;;;;;;8.30;98.49;101519.22;5013299;28;20079;-76
2023/04/29 03:57:25;;;;;;;28.25;14.38;;;;;;;8.31;98.49;101522.66;5014147;28;20104;-76
2023/04/29 03:59:51;;;;;;;25.70;14.27;;;;;;;8.31;98.14;101523.53;5013936;28;20455;-76
2023/04/29 04:02:16;;;;;;;26.80;14.95;;;;;;;8.30;98.38;101532.16;5014571;28;20025;-76
2023/04/29 04:04:41;;;;;;;26.40;13.85;;;;;;;8.30;98.15;101526.97;5014919;28;20101;-76
2023/04/29 04:07:07;;;;;;;26.38;14.05;;;;;;;8.30;98.14;101534.75;5014809;28;20056;-76
2023/04/29 04:09:32;;;;;;;27.45;13.82;;;;;;;8.31;97.65;101533.91;5013632;28;20056;-76
2023/04/29 04:11:58;;;;;;;25.58;13.60;;;;;;;8.32;98.13;101537.34;5015079;28;20045;-76
2023/04/29 04:14:23;;;;;;;29.02;14.43;;;;;;;8.32;98.21;101540.81;5014032;28;20281;-76
2023/04/29 04:16:49;;;;;;;25.00;14.02;;;;;;;8.34;97.71;101543.38;5014552;28;20041;-76
2023/04/29 04:19:15;;;;;;;26.10;13.65;;;;;;;8.33;98.09;101546.84;5014063;28;20029;-76
2023/04/29 04:21:41;;;;;;;24.83;13.20;;;;;;;8.33;97.87;101550.31;5014680;28;20029;-76
2023/04/29 04:24:06;;;;;;;25.05;13.60;;;;;;;8.34;97.81;101548.56;5013797;28;20474;-76
2023/04/29 04:26:31;;;;;;;23.65;13.27;;;;;;;8.34;98.00;101553.75;5013209;28;20060;-76
2023/04/29 04:28:57;;;;;;;21.77;12.43;;;;;;;8.35;98.04;101558.06;5014905;28;20077;-76
2023/04/29 04:31:22;;;;;;;24.75;13.57;;;;;;;8.34;97.46;101553.75;5013267;28;20509;-76
2023/04/29 04:33:47;;;;;;;23.98;13.25;;;;;;;8.33;97.67;101552.91;5014738;28;20033;-77
2023/04/29 04:36:12;;;;;;;23.55;12.98;;;;;;;8.33;97.32;101563.28;5012920;28;20425;-76
2023/04/29 04:38:38;;;;;;;25.45;13.70;;;;;;;8.31;97.75;101557.22;5010237;28;20027;-76
2023/04/29 04:41:06;;;;;;;25.35;13.05;;;;;;;8.33;97.65;101564.97;5014347;28;20407;-75
2023/04/29 04:43:31;;;;;;;24.08;12.55;;;;;;;8.32;97.26;101568.44;5014159;28;20104;-75
2023/04/29 04:45:56;;;;;;;21.58;12.07;;;;;;;8.32;97.37;101582.28;5014156;28;20128;-76
2023/04/29 04:48:22;;;;;;;22.42;12.25;;;;;;;8.33;97.68;101578.81;5011811;28;20202;-76
2023/04/29 04:50:47;;;;;;;22.27;11.88;;;;;;;8.34;97.33;101577.97;5012478;28;20029;-76
2023/04/29 04:53:12;;;;;;;21.40;11.68;;;;;;;8.35;97.28;101592.66;5012116;28;20495;-76
2023/04/29 04:55:37;;;;;;;24.10;12.82;;;;;;;8.33;97.20;101593.50;5014016;28;20030;-76
2023/04/29 04:58:03;;;;;;;24.75;12.27;;;;;;;8.32;97.53;101600.44;5013435;28;20030;-76
2023/04/29 05:00:28;;;;;;;21.80;11.98;;;;;;;8.34;97.42;101603.88;5010212;28;20382;-76
2023/04/29 05:02:53;;;;;;;22.17;12.23;;;;;;;8.33;97.49;101609.94;5009165;28;20045;-76
2023/04/29 05:05:18;;;;;;;20.92;12.02;;;;;;;8.35;97.43;101618.56;5014898;28;20374;-76
2023/04/29 05:07:44;;;;;;;22.55;11.52;;;;;;;8.37;97.40;101612.53;5013010;28;20072;-76
2023/04/29 05:10:10;;;;;;;21.70;12.05;;;;;;;8.37;96.95;101607.34;5012784;28;20065;-76
2023/04/29 05:12:35;;;;;;;21.80;11.30;;;;;;;8.37;96.71;101618.56;5012598;28;20018;-76
2023/04/29 05:15:01;;;;;;;21.20;12.13;;;;;;;8.37;96.88;101620.31;5013055;28;20037;-76
2023/04/29 05:17:27;;;;;;;24.00;12.45;;;;;;;8.36;96.90;101616.84;5013966;28;20427;-76
2023/04/29 05:19:52;;;;;;;21.33;12.23;;;;;;;8.37;96.72;101625.50;5011288;28;20100;-76
2023/04/29 05:22:17;;;;;;;21.98;12.18;;;;;;;8.35;96.94;101623.75;5012168;28;20029;-76
2023/04/29 05:24:42;;;;;;;22.23;11.98;;;;;;;8.36;97.17;101632.38;5012919;28;20068;-76
2023/04/29 05:27:08;;;;;;;21.08;11.60;;;;;;;8.36;96.88;101629.78;5012823;28;20535;-76
2023/04/29 05:29:33;;;;;;;23.17;12.18;;;;;;;8.34;96.87;101624.63;5010346;28;20041;-76
2023/04/29 05:31:59;;;;;;;20.90;11.77;;;;;;;8.36;97.31;101627.19;5012428;28;20029;-76
2023/04/29 05:34:24;;;;;;;19.92;11.70;;;;;;;8.40;96.98;101631.50;5011476;28;20021;-76
2023/04/29 05:36:50;;;;;;;21.95;12.55;;;;;;;8.39;97.16;101629.78;5012393;28;20048;-76
2023/04/29 05:39:16;;;;;;;21.92;11.77;;;;;;;8.41;96.76;101637.56;5012686;28;20501;-76
2023/04/29 05:41:41;;;;;;;22.65;12.23;;;;;;;8.41;97.03;101638.44;5011590;28;20024;-76
2023/04/29 05:44:07;;;;;;;22.83;12.00;;;;;;;8.42;97.06;101634.09;5013168;28;20093;-76
2023/04/29 05:46:32;;;;;;;20.55;11.70;;;;;;;8.42;97.02;101637.56;5027749;28;20022;-76
2023/04/29 05:48:57;;;;;;;21.48;11.48;;;;;;;8.43;96.80;101644.47;5008932;28;20029;-76
2023/04/29 05:51:22;;;;;;;19.55;11.13;;;;;;;8.44;96.90;101647.91;5010434;28;20029;-76
2023/04/29 05:53:48;;;;;;;21.33;11.45;;;;;;;8.45;96.61;101650.53;5013026;28;20040;-75
2023/04/29 05:56:13;;;;;;;21.42;11.57;;;;;;;8.46;96.49;101661.75;5016528;28;20378;-76
2023/04/29 05:58:38;;;;;;;21.83;11.85;;;;;;;8.47;96.49;101668.66;5011564;28;20021;-76
2023/04/29 06:01:04;;;;;;;20.38;11.57;;;;;;;8.46;96.53;101669.53;5009065;28;20425;-76
2023/04/29 06:03:30;;;;;;;20.23;12.15;;;;;;;8.46;96.69;101674.72;5011715;28;20026;-76
2023/04/29 06:05:55;;;;;;;19.42;11.00;;;;;;;8.46;96.71;101678.16;5012446;28;20036;-76
2023/04/29 06:08:20;;;;;;;18.55;10.50;;;;;;;8.46;96.63;101674.72;5012625;28;20018;-76
2023/04/29 06:10:46;;;;;;;17.52;10.18;;;;;;;8.48;97.12;101683.38;5012252;28;20100;-76
2023/04/29 06:13:11;;;;;;;20.33;11.68;;;;;;;8.47;96.57;101686.81;5010334;28;20076;-76
2023/04/29 06:15:37;;;;;;;18.33;10.43;;;;;;;8.48;96.11;101692.00;5012134;28;20026;-76
2023/04/29 06:18:03;;;;;;;18.98;10.93;;;;;;;8.49;96.13;101698.91;5012456;28;20402;-76
2023/04/29 06:20:28;;;;;;;21.17;11.05;;;;;;;8.50;96.51;101689.44;5011388;28;20018;-76
2023/04/29 06:22:53;;;;;;;17.80;11.02;;;;;;;8.50;96.39;101695.47;5011523;28;20052;-76
2023/04/29 06:25:19;;;;;;;20.90;11.68;;;;;;;8.51;96.32;101701.53;5011881;28;20022;-76
2023/04/29 06:27:44;;;;;;;18.08;11.07;;;;;;;8.51;96.39;101691.16;5011029;28;20026;-76
2023/04/29 06:30:10;;;;;;;19.00;10.73;;;;;;;8.53;96.60;101693.72;5010502;28;20038;-76
2023/04/29 06:32:36;;;;;;;18.55;10.95;;;;;;;8.57;96.72;101698.91;5010595;28;20501;-76
2023/04/29 06:35:01;;;;;;;21.35;11.07;;;;;;;8.64;96.67;101705.78;5009473;28;20064;-76
2023/04/29 06:37:27;;;;;;;18.45;10.55;;;;;;;8.70;96.69;101706.66;5012164;28;20025;-76
2023/04/29 06:39:52;;;;;;;16.85;10.77;;;;;;;8.77;96.48;101713.53;5005889;28;20049;-76
2023/04/29 06:42:18;;;;;;;18.40;10.95;;;;;;;8.82;96.42;101716.97;5008026;28;20049;-76
2023/04/29 06:44:43;;;;;;;15.93;10.38;;;;;;;8.88;96.03;101722.13;5011825;28;20029;-76
2023/04/29 06:47:09;;;;;;;19.23;10.82;;;;;;;8.94;95.92;101721.25;5008662;28;20493;-76
2023/04/29 06:49:34;;;;;;;20.38;11.18;;;;;;;9.02;95.97;101729.00;5007139;28;20033;-76
2023/04/29 06:52:01;;;;;;;19.77;10.98;;;;;;;9.08;96.32;101726.34;5005949;28;20029;-76
2023/04/29 06:54:27;;;;;;;19.05;10.90;;;;;;;9.15;95.86;101735.84;5006118;28;20030;-76
2023/04/29 06:56:52;;;;;;;19.38;10.82;;;;;;;9.19;95.37;101732.38;5006655;28;20025;-76
2023/04/29 06:59:18;;;;;;;19.25;11.30;;;;;;;9.24;95.08;101738.38;5005078;28;20032;-76
2023/04/29 07:01:43;;;;;;;20.60;11.48;;;;;;;9.28;94.56;101744.44;5007976;28;20029;-76
2023/04/29 07:04:08;;;;;;;21.55;11.48;;;;;;;9.31;94.09;101747.00;5011498;28;20025;-76
2023/04/29 07:06:33;;;;;;;19.17;10.98;;;;;;;9.34;93.07;101746.13;5009173;28;20385;-76
2023/04/29 07:08:59;;;;;;;19.30;11.73;;;;;;;9.39;93.14;101755.63;5005081;28;20026;-76
2023/04/29 07:17:00;;;;;;;17.67;10.95;;;;;;;9.50;91.32;101763.34;5268823;22;20418;-74
2023/04/29 07:19:26;;;;;;;16.85;10.60;;;;;;;9.54;91.33;101771.97;5069374;28;20039;-74
2023/04/29 07:21:51;;;;;;;17.90;10.75;;;;;;;9.56;91.50;101768.47;5068003;28;20033;-74
2023/04/29 07:24:16;;;;;;;17.60;10.82;;;;;;;9.58;91.52;101765.88;5070155;28;20021;-74
2023/04/29 07:26:43;;;;;;;20.10;11.35;;;;;;;9.59;91.22;101775.41;5059960;28;20029;-76
2023/04/29 07:29:09;;;;;;;17.58;10.63;;;;;;;9.57;91.21;101785.78;5049768;28;20017;-74
2023/04/29 07:31:34;;;;;;;17.85;11.68;;;;;;;9.59;91.30;101783.19;5040263;28;20021;-74
2023/04/29 07:34:00;;;;;;;17.75;11.38;;;;;;;9.60;90.23;101784.06;5030172;28;20029;-74
2023/04/29 07:36:27;;;;;;;17.63;11.55;;;;;;;9.62;90.45;101788.38;5046318;28;20025;-74
2023/04/29 07:38:52;;;;;;;19.67;11.27;;;;;;;9.67;91.22;101796.13;5050023;28;20021;-75
2023/04/29 07:41:18;;;;;;;18.23;10.65;;;;;;;9.72;91.28;101792.63;5050116;28;20590;-74
2023/04/29 07:43:43;;;;;;;17.85;11.30;;;;;;;9.76;89.03;101796.06;5049441;28;20025;-79
2023/04/29 07:46:08;;;;;;;18.02;11.20;;;;;;;9.81;90.74;101790.84;5044413;28;20173;-74
2023/04/29 07:48:38;;;;;;;17.75;10.90;;;;;;;9.87;89.85;101791.66;5031633;28;20045;-74
2023/04/29 09:27:28;;;;;;;16.42;9.40;;;;;;;11.78;78.82;101859.06;5092244;27;20375;-77
2023/04/29 09:30:00;;;;;;;18.55;9.95;;;;;;;11.84;79.61;101856.34;5078538;28;20024;-77
2023/04/29 09:32:26;;;;;;;16.67;10.43;;;;;;;11.88;79.28;101857.16;5079091;28;20442;-77
2023/04/29 09:34:51;;;;;;;16.00;10.23;;;;;;;11.98;79.42;101859.63;5077039;28;20554;-77
2023/04/29 09:37:26;;;;;;;14.80;9.32;;;;;;;12.06;78.23;101856.06;5076387;28;20025;-77
2023/04/29 09:39:52;;;;;;;16.27;9.73;;;;;;;12.08;77.13;101862.97;5079754;28;20028;-77
2023/04/29 09:42:18;;;;;;;15.13;9.80;;;;;;;12.16;78.19;101862.84;5077726;28;20033;-77
2023/04/29 09:44:44;;;;;;;15.25;9.98;;;;;;;12.24;79.01;101861.00;5077470;28;20059;-77
2023/04/29 09:47:09;;;;;;;16.95;10.13;;;;;;;12.30;78.20;101865.25;5073894;28;20039;-78
2023/04/29 09:49:44;;;;;;;15.02;9.23;;;;;;;12.37;78.21;101872.09;5075193;28;20032;-77
2023/04/29 09:52:15;;;;;;;15.13;9.73;;;;;;;12.46;78.79;101863.25;5073751;28;20020;-77
2023/04/29 09:54:42;;;;;;;14.95;9.30;;;;;;;12.56;76.75;101861.31;5071475;28;20033;-77
2023/04/29 10:11:03;;;;;;;12.70;9.93;;;;;;;13.08;75.23;101883.00;5091432;27;20411;-77
2023/04/29 10:13:29;;;;;;;14.50;8.27;;;;;;;13.20;74.68;101880.13;5081080;28;20028;-77
2023/04/29 10:16:30;;;;;;;12.27;7.55;;;;;;;13.36;76.46;101882.44;5080990;28;20086;-77
2023/04/29 10:18:58;;;;;;;12.07;7.95;;;;;;;13.44;74.87;101880.56;5082134;28;20046;-77
2023/04/29 10:21:30;;;;;;;11.52;7.43;;;;;;;13.46;73.72;101890.97;5079517;28;20031;-77
2023/04/29 10:23:57;;;;;;;12.05;8.18;;;;;;;13.41;71.97;101888.47;5088546;28;20264;-77
2023/04/29 10:26:28;;;;;;;12.70;7.43;;;;;;;13.34;73.54;101892.06;5085136;28;20074;-77
2023/04/29 10:28:58;;;;;;;12.00;7.60;;;;;;;13.29;70.34;101899.16;5076674;28;20194;-77
2023/04/29 10:31:29;;;;;;;11.63;7.60;;;;;;;13.31;70.21;101900.84;5076330;28;20032;-77
2023/04/29 10:33:56;;;;;;;11.07;7.20;;;;;;;13.35;69.36;101901.63;5080650;28;20036;-77
2023/04/29 10:36:22;;;;;;;11.73;7.18;;;;;;;13.41;70.56;101893.69;5080500;28;20062;-78
2023/04/29 10:38:53;;;;;;;10.93;7.25;;;;;;;13.48;71.07;101900.53;5082535;28;20027;-77
2023/04/29 10:41:27;;;;;;;10.20;7.32;;;;;;;13.58;71.54;101900.31;5079522;28;20028;-78
2023/04/29 10:43:53;;;;;;;13.60;7.20;;;;;;;13.67;69.99;101900.13;5079823;28;20035;-78
2023/04/29 10:46:22;;;;;;;9.63;6.95;;;;;;;13.84;68.93;101896.25;5073210;28;20032;-78
2023/04/29 10:48:56;;;;;;;10.48;7.10;;;;;;;13.91;67.88;101895.25;5079861;28;20089;-78
2023/04/29 10:51:42;;;;;;;9.98;7.07;;;;;;;13.88;68.41;101903.16;5081107;28;20031;-77
2023/04/29 10:54:11;;;;;;;11.05;6.60;;;;;;;13.76;65.92;101909.50;5088395;28;20046;-77
2023/04/29 10:56:48;;;;;;;11.55;7.00;;;;;;;13.61;68.35;101905.50;5086799;28;20085;-77
2023/04/29 10:59:21;;;;;;;10.60;6.30;;;;;;;13.42;68.59;101910.22;5087516;28;20043;-77
2023/04/29 11:01:48;;;;;;;9.30;6.25;;;;;;;13.35;69.56;101906.84;5083986;28;20481;-77
2023/04/29 11:04:15;;;;;;;11.43;7.05;;;;;;;13.27;67.15;101911.38;5084547;28;20035;-77
2023/04/29 11:06:43;;;;;;;10.35;6.60;;;;;;;13.24;69.34;101906.22;5082054;28;20027;-77
2023/04/29 11:09:26;;;;;;;9.68;6.57;;;;;;;13.29;69.12;101909.59;5083149;28;20074;-77
2023/04/29 11:11:55;;;;;;;9.57;6.40;;;;;;;13.32;68.25;101909.56;5066338;28;20064;-77
2023/04/29 11:14:35;;;;;;;9.88;6.38;;;;;;;13.36;68.79;101912.06;5069599;28;20467;-77
2023/04/29 11:17:03;;;;;;;11.57;7.00;;;;;;;13.42;67.54;101911.09;5067095;28;20041;-77
2023/04/29 11:19:34;;;;;;;10.40;6.55;;;;;;;13.45;67.56;101911.06;5066768;28;20093;-77
2023/04/29 11:22:06;;;;;;;10.70;6.82;;;;;;;13.48;67.84;101911.00;5074802;28;20039;-77
2023/04/29 11:24:34;;;;;;;12.02;6.90;;;;;;;13.49;66.74;101915.28;5072286;28;20039;-77
2023/04/29 11:27:03;;;;;;;10.93;6.93;;;;;;;13.48;67.39;101913.59;5074348;28;20176;-77
2023/04/29 11:29:30;;;;;;;11.52;7.60;;;;;;;13.50;69.87;101914.41;5069748;28;20023;-78
2023/04/29 11:32:01;;;;;;;8.45;6.32;;;;;;;13.58;69.66;101916.00;5075176;28;20747;-77
2023/04/29 11:34:27;;;;;;;8.23;6.00;;;;;;;13.64;69.05;101914.13;5075196;28;20484;-77
2023/04/29 11:36:52;;;;;;;11.63;6.40;;;;;;;13.73;67.88;101907.00;5074928;28;20035;-77
2023/04/29 11:39:18;;;;;;;10.45;5.80;;;;;;;13.84;67.35;101911.97;5072516;28;20032;-77
2023/04/29 11:41:43;;;;;;;9.02;5.88;;;;;;;13.98;67.31;101909.03;5075184;28;20108;-77
2023/04/29 11:44:11;;;;;;;8.27;5.57;;;;;;;14.08;67.62;101907.94;5072972;28;20031;-78
2023/04/29 11:46:36;;;;;;;8.93;5.82;;;;;;;14.14;66.93;101914.78;5071830;28;20043;-77
2023/04/29 11:49:01;;;;;;;10.70;6.35;;;;;;;14.19;67.32;101912.91;5071290;28;20031;-77
2023/04/29 11:51:27;;;;;;;11.30;5.80;;;;;;;14.27;65.52;101910.97;5071703;28;20421;-77
2023/04/29 11:53:53;;;;;;;8.10;5.38;;;;;;;14.33;62.77;101913.47;5076305;28;20032;-78
2023/04/29 11:56:24;;;;;;;7.88;5.38;;;;;;;14.41;62.99;101914.13;5077301;28;20365;-77
2023/04/29 11:58:53;;;;;;;7.50;5.22;;;;;;;14.47;65.64;101912.25;5073866;28;20078;-78
2023/04/29 12:01:20;;;;;;;7.57;4.97;;;;;;;14.51;63.99;101914.75;5069266;28;20475;-77
2023/04/29 12:03:47;;;;;;;7.25;4.80;;;;;;;14.59;63.65;101917.19;5072022;28;20499;-78
2023/04/29 12:06:13;;;;;;;7.40;5.15;;;;;;;14.66;61.89;101913.50;5078138;28;20032;-77
2023/04/29 12:08:39;;;;;;;7.10;4.57;;;;;;;14.79;62.37;101913.22;5074342;28;20032;-77
2023/04/29 12:11:06;;;;;;;6.38;4.75;;;;;;;14.90;64.24;101913.78;5070551;28;20038;-77
2023/04/29 12:13:34;;;;;;;6.65;4.68;;;;;;;14.99;61.07;101910.06;5082322;28;20418;-77
2023/04/29 12:16:00;;;;;;;7.72;5.43;;;;;;;15.07;63.27;101913.34;5074103;28;20032;-77
2023/04/29 12:18:26;;;;;;;6.78;4.80;;;;;;;15.17;61.46;101911.31;5075108;28;20119;-78
2023/04/29 12:20:54;;;;;;;6.70;4.60;;;;;;;15.17;61.83;101914.78;5075420;28;20028;-78
2023/04/29 12:23:22;;;;;;;7.07;4.95;;;;;;;15.13;61.23;101917.53;5066949;28;20086;-78
2023/04/29 12:25:49;;;;;;;7.60;5.05;;;;;;;15.11;62.29;101914.97;5066258;28;20497;-78
2023/04/29 12:28:15;;;;;;;6.22;4.68;;;;;;;15.11;58.85;101914.97;5067223;28;20115;-77
2023/04/29 12:30:43;;;;;;;8.75;5.10;;;;;;;15.22;61.21;101914.66;5066507;28;20147;-77
2023/04/29 12:33:09;;;;;;;7.35;4.10;;;;;;;15.29;61.41;101918.84;5068815;28;20040;-77
2023/04/29 12:35:35;;;;;;;7.93;5.20;;;;;;;15.39;60.21;101915.94;5067947;28;20103;-78
2023/04/29 12:38:01;;;;;;;8.05;5.45;;;;;;;15.49;57.40;101914.78;5066275;28;20024;-77
2023/04/29 12:40:27;;;;;;;6.22;4.55;;;;;;;15.62;56.84;101918.75;5069564;28;20040;-77
2023/04/29 12:42:53;;;;;;;6.57;4.53;;;;;;;15.66;57.28;101916.06;5068284;28;20054;-78
2023/04/29 12:45:26;;;;;;;6.63;4.65;;;;;;;15.72;60.21;101918.47;5063358;28;20039;-78
2023/04/29 12:47:52;;;;;;;7.13;4.50;;;;;;;15.75;58.05;101921.00;5065842;28;20031;-78
2023/04/29 12:50:18;;;;;;;6.32;4.40;;;;;;;15.72;59.45;101916.72;5065224;28;20364;-78
2023/04/29 12:52:43;;;;;;;6.40;4.78;;;;;;;15.72;58.13;101913.22;5075862;28;20521;-77
2023/04/29 12:55:08;;;;;;;8.18;4.63;;;;;;;15.67;58.83;101912.53;5071852;28;20543;-77
2023/04/29 12:57:33;;;;;;;5.47;4.20;;;;;;;15.59;58.88;101916.22;5068885;28;20040;-78
2023/04/29 12:59:59;;;;;;;7.53;4.80;;;;;;;15.48;57.10;101918.31;5067745;28;20032;-78
2023/04/29 13:02:24;;;;;;;7.35;4.35;;;;;;;15.39;58.22;101923.81;5069523;28;20426;-78
2023/04/29 13:04:50;;;;;;;5.65;4.13;;;;;;;15.29;59.78;101929.31;5072399;28;20526;-77
2023/04/29 13:07:15;;;;;;;5.88;4.63;;;;;;;15.25;60.99;101922.44;5072492;28;20047;-77
2023/04/29 13:09:41;;;;;;;6.18;4.47;;;;;;;15.23;59.47;101926.88;5070510;28;20040;-78
2023/04/29 13:12:08;;;;;;;7.07;4.18;;;;;;;15.27;59.88;101925.88;5068463;28;20082;-77
2023/04/29 13:14:33;;;;;;;6.57;4.28;;;;;;;15.35;58.75;101927.44;5066357;28;20033;-77